sensor_id;sensor_type;location;lat;lon;timestamp;P1;durP1;ratioP1;P2;durP2;ratioP2
37937;SDS011;23763;48.130;11.602;2023-04-03T00:01:00;6.70;;;5.03;;
37937;SDS011;23763;48.130;11.602;2023-04-03T00:03:26;7.47;;;5.17;;
37937;SDS011;23763;48.130;11.602;2023-04-03T00:05:52;8.67;;;5.37;;
37937;SDS011;23763;48.130;11.602;2023-04-03T00:08:18;8.30;;;5.70;;
37937;SDS011;23763;48.130;11.602;2023-04-03T00:10:44;5.77;;;4.73;;
37937;SDS011;23763;48.130;11.602;2023-04-03T00:13:10;6.53;;;4.80;;
37937;SDS011;23763;48.130;11.602;2023-04-03T00:15:36;6.77;;;4.87;;
37937;SDS011;23763;48.130;11.602;2023-04-03T00:18:03;7.40;;;5.77;;
37937;SDS011;23763;48.130;11.602;2023-04-03T00:20:28;5.37;;;4.83;;
37937;SDS011;23763;48.130;11.602;2023-04-03T00:22:54;7.03;;;5.03;;
37937;SDS011;23763;48.130;11.602;2023-04-03T00:25:20;8.17;;;5.50;;
37937;SDS011;23763;48.130;11.602;2023-04-03T00:27:46;8.27;;;5.67;;
37937;SDS011;23763;48.130;11.602;2023-04-03T00:30:13;8.83;;;5.27;;
37937;SDS011;23763;48.130;11.602;2023-04-03T00:32:40;6.50;;;5.00;;
37937;SDS011;23763;48.130;11.602;2023-04-03T00:35:06;6.70;;;5.33;;
37937;SDS011;23763;48.130;11.602;2023-04-03T00:37:32;7.33;;;5.17;;
37937;SDS011;23763;48.130;11.602;2023-04-03T00:39:58;6.37;;;5.50;;
37937;SDS011;23763;48.130;11.602;2023-04-03T00:42:24;6.37;;;4.93;;
37937;SDS011;23763;48.130;11.602;2023-04-03T00:47:21;7.37;;;5.97;;
37937;SDS011;23763;48.130;11.602;2023-04-03T00:49:47;8.07;;;5.60;;
37937;SDS011;23763;48.130;11.602;2023-04-03T00:52:16;5.63;;;4.83;;
37937;SDS011;23763;48.130;11.602;2023-04-03T00:54:44;6.73;;;5.30;;
37937;SDS011;23763;48.130;11.602;2023-04-03T00:57:12;8.40;;;5.23;;
37937;SDS011;23763;48.130;11.602;2023-04-03T00:59:42;6.03;;;5.33;;
37937;SDS011;23763;48.130;11.602;2023-04-03T01:02:10;8.00;;;5.27;;
37937;SDS011;23763;48.130;11.602;2023-04-03T01:04:37;5.20;;;4.70;;
37937;SDS011;23763;48.130;11.602;2023-04-03T01:09:46;6.13;;;4.57;;
37937;SDS011;23763;48.130;11.602;2023-04-03T01:12:20;8.27;;;4.63;;
37937;SDS011;23763;48.130;11.602;2023-04-03T01:14:52;6.37;;;5.27;;
37937;SDS011;23763;48.130;11.602;2023-04-03T01:19:56;7.23;;;5.20;;
37937;SDS011;23763;48.130;11.602;2023-04-03T01:25:45;5.13;;;4.63;;
37937;SDS011;23763;48.130;11.602;2023-04-03T01:28:17;6.87;;;4.93;;
37937;SDS011;23763;48.130;11.602;2023-04-03T01:30:47;6.07;;;4.77;;
37937;SDS011;23763;48.130;11.602;2023-04-03T01:33:18;5.80;;;4.93;;
37937;SDS011;23763;48.130;11.602;2023-04-03T01:35:43;5.73;;;5.13;;
37937;SDS011;23763;48.130;11.602;2023-04-03T01:38:09;5.10;;;4.50;;
37937;SDS011;23763;48.130;11.602;2023-04-03T01:40:35;7.10;;;4.87;;
37937;SDS011;23763;48.130;11.602;2023-04-03T01:43:01;5.67;;;4.60;;
37937;SDS011;23763;48.130;11.602;2023-04-03T01:45:26;5.77;;;5.10;;
37937;SDS011;23763;48.130;11.602;2023-04-03T01:47:52;6.77;;;4.67;;
37937;SDS011;23763;48.130;11.602;2023-04-03T01:50:18;6.50;;;5.07;;
37937;SDS011;23763;48.130;11.602;2023-04-03T01:52:43;6.33;;;5.17;;
37937;SDS011;23763;48.130;11.602;2023-04-03T01:55:09;6.43;;;5.33;;
37937;SDS011;23763;48.130;11.602;2023-04-03T01:57:34;4.93;;;4.47;;
37937;SDS011;23763;48.130;11.602;2023-04-03T02:00:00;5.17;;;4.60;;
37937;SDS011;23763;48.130;11.602;2023-04-03T02:02:26;8.30;;;4.90;;
37937;SDS011;23763;48.130;11.602;2023-04-03T02:04:52;5.43;;;4.23;;
37937;SDS011;23763;48.130;11.602;2023-04-03T02:07:17;5.13;;;4.60;;
37937;SDS011;23763;48.130;11.602;2023-04-03T02:09:43;5.87;;;5.10;;
37937;SDS011;23763;48.130;11.602;2023-04-03T02:12:08;6.10;;;4.53;;
37937;SDS011;23763;48.130;11.602;2023-04-03T02:14:34;7.43;;;4.67;;
37937;SDS011;23763;48.130;11.602;2023-04-03T02:17:00;7.13;;;5.00;;
37937;SDS011;23763;48.130;11.602;2023-04-03T02:19:30;6.17;;;4.80;;
37937;SDS011;23763;48.130;11.602;2023-04-03T02:21:56;5.50;;;4.57;;
37937;SDS011;23763;48.130;11.602;2023-04-03T02:24:21;7.47;;;4.80;;
37937;SDS011;23763;48.130;11.602;2023-04-03T02:26:47;5.33;;;4.83;;
37937;SDS011;23763;48.130;11.602;2023-04-03T02:29:12;5.03;;;4.30;;
37937;SDS011;23763;48.130;11.602;2023-04-03T02:31:38;4.93;;;4.50;;
37937;SDS011;23763;48.130;11.602;2023-04-03T02:34:03;6.13;;;4.43;;
37937;SDS011;23763;48.130;11.602;2023-04-03T02:36:29;6.13;;;4.77;;
37937;SDS011;23763;48.130;11.602;2023-04-03T02:38:55;4.40;;;4.00;;
37937;SDS011;23763;48.130;11.602;2023-04-03T02:41:20;4.90;;;4.27;;
37937;SDS011;23763;48.130;11.602;2023-04-03T02:43:46;4.33;;;3.93;;
37937;SDS011;23763;48.130;11.602;2023-04-03T02:46:12;5.47;;;4.00;;
37937;SDS011;23763;48.130;11.602;2023-04-03T02:48:39;6.23;;;4.07;;
37937;SDS011;23763;48.130;11.602;2023-04-03T02:51:05;5.53;;;4.20;;
37937;SDS011;23763;48.130;11.602;2023-04-03T02:53:31;6.53;;;3.83;;
37937;SDS011;23763;48.130;11.602;2023-04-03T02:55:56;5.40;;;4.23;;
37937;SDS011;23763;48.130;11.602;2023-04-03T02:58:22;5.03;;;3.43;;
37937;SDS011;23763;48.130;11.602;2023-04-03T03:00:48;4.63;;;4.03;;
37937;SDS011;23763;48.130;11.602;2023-04-03T03:03:13;4.57;;;3.40;;
37937;SDS011;23763;48.130;11.602;2023-04-03T03:05:39;3.93;;;3.17;;
37937;SDS011;23763;48.130;11.602;2023-04-03T03:08:05;4.17;;;3.50;;
37937;SDS011;23763;48.130;11.602;2023-04-03T03:10:31;3.77;;;3.37;;
37937;SDS011;23763;48.130;11.602;2023-04-03T03:12:56;6.00;;;4.10;;
37937;SDS011;23763;48.130;11.602;2023-04-03T03:15:22;4.73;;;3.43;;
37937;SDS011;23763;48.130;11.602;2023-04-03T03:17:47;4.07;;;3.10;;
37937;SDS011;23763;48.130;11.602;2023-04-03T03:20:13;3.77;;;3.37;;
37937;SDS011;23763;48.130;11.602;2023-04-03T03:22:40;4.27;;;3.43;;
37937;SDS011;23763;48.130;11.602;2023-04-03T03:25:06;5.67;;;3.57;;
37937;SDS011;23763;48.130;11.602;2023-04-03T03:27:32;4.00;;;3.60;;
37937;SDS011;23763;48.130;11.602;2023-04-03T03:29:57;3.83;;;2.93;;
37937;SDS011;23763;48.130;11.602;2023-04-03T03:32:23;3.37;;;3.00;;
37937;SDS011;23763;48.130;11.602;2023-04-03T03:34:48;3.30;;;2.93;;
37937;SDS011;23763;48.130;11.602;2023-04-03T03:37:14;4.67;;;3.57;;
37937;SDS011;23763;48.130;11.602;2023-04-03T03:39:40;3.23;;;2.97;;
37937;SDS011;23763;48.130;11.602;2023-04-03T03:42:06;4.10;;;3.40;;
37937;SDS011;23763;48.130;11.602;2023-04-03T03:44:31;3.43;;;3.13;;
37937;SDS011;23763;48.130;11.602;2023-04-03T03:46:57;2.90;;;2.70;;
37937;SDS011;23763;48.130;11.602;2023-04-03T03:49:22;3.37;;;3.07;;
37937;SDS011;23763;48.130;11.602;2023-04-03T03:51:48;3.70;;;2.77;;
37937;SDS011;23763;48.130;11.602;2023-04-03T03:54:13;4.40;;;2.97;;
37937;SDS011;23763;48.130;11.602;2023-04-03T03:56:39;3.40;;;3.07;;
37937;SDS011;23763;48.130;11.602;2023-04-03T03:59:05;3.73;;;3.00;;
37937;SDS011;23763;48.130;11.602;2023-04-03T04:01:31;3.57;;;2.80;;
37937;SDS011;23763;48.130;11.602;2023-04-03T04:03:57;5.37;;;3.27;;
37937;SDS011;23763;48.130;11.602;2023-04-03T04:06:23;3.93;;;2.80;;
37937;SDS011;23763;48.130;11.602;2023-04-03T04:08:48;4.10;;;2.60;;
37937;SDS011;23763;48.130;11.602;2023-04-03T04:11:14;2.80;;;2.60;;
37937;SDS011;23763;48.130;11.602;2023-04-03T04:13:40;2.77;;;2.47;;
37937;SDS011;23763;48.130;11.602;2023-04-03T04:16:05;2.87;;;2.57;;
37937;SDS011;23763;48.130;11.602;2023-04-03T04:18:32;4.47;;;2.90;;
37937;SDS011;23763;48.130;11.602;2023-04-03T04:20:57;5.00;;;2.80;;
37937;SDS011;23763;48.130;11.602;2023-04-03T04:23:23;3.10;;;2.80;;
37937;SDS011;23763;48.130;11.602;2023-04-03T04:25:48;3.17;;;2.83;;
37937;SDS011;23763;48.130;11.602;2023-04-03T04:28:15;3.53;;;2.93;;
37937;SDS011;23763;48.130;11.602;2023-04-03T04:30:41;3.10;;;2.80;;
37937;SDS011;23763;48.130;11.602;2023-04-03T04:33:07;3.93;;;3.20;;
37937;SDS011;23763;48.130;11.602;2023-04-03T04:35:33;4.80;;;3.10;;
37937;SDS011;23763;48.130;11.602;2023-04-03T04:37:59;3.37;;;2.90;;
37937;SDS011;23763;48.130;11.602;2023-04-03T04:40:25;4.87;;;3.10;;
37937;SDS011;23763;48.130;11.602;2023-04-03T04:42:50;4.70;;;2.90;;
37937;SDS011;23763;48.130;11.602;2023-04-03T04:45:16;3.10;;;2.87;;
37937;SDS011;23763;48.130;11.602;2023-04-03T04:47:42;3.13;;;2.60;;
37937;SDS011;23763;48.130;11.602;2023-04-03T04:50:08;2.70;;;2.50;;
37937;SDS011;23763;48.130;11.602;2023-04-03T04:52:34;4.63;;;2.73;;
37937;SDS011;23763;48.130;11.602;2023-04-03T04:55:00;4.07;;;2.87;;
37937;SDS011;23763;48.130;11.602;2023-04-03T04:57:25;3.30;;;2.50;;
37937;SDS011;23763;48.130;11.602;2023-04-03T04:59:51;2.70;;;2.50;;
37937;SDS011;23763;48.130;11.602;2023-04-03T05:02:16;3.33;;;2.53;;
37937;SDS011;23763;48.130;11.602;2023-04-03T05:04:42;2.77;;;2.57;;
37937;SDS011;23763;48.130;11.602;2023-04-03T05:07:08;3.00;;;2.37;;
37937;SDS011;23763;48.130;11.602;2023-04-03T05:09:33;3.73;;;3.17;;
37937;SDS011;23763;48.130;11.602;2023-04-03T05:11:59;3.03;;;2.73;;
37937;SDS011;23763;48.130;11.602;2023-04-03T05:14:25;4.03;;;2.80;;
37937;SDS011;23763;48.130;11.602;2023-04-03T05:16:50;4.40;;;2.87;;
37937;SDS011;23763;48.130;11.602;2023-04-03T05:19:19;4.97;;;2.77;;
37937;SDS011;23763;48.130;11.602;2023-04-03T05:21:46;3.10;;;2.80;;
37937;SDS011;23763;48.130;11.602;2023-04-03T05:24:12;3.10;;;2.77;;
37937;SDS011;23763;48.130;11.602;2023-04-03T05:26:38;3.23;;;2.50;;
37937;SDS011;23763;48.130;11.602;2023-04-03T05:29:04;3.20;;;2.90;;
37937;SDS011;23763;48.130;11.602;2023-04-03T05:31:30;5.23;;;2.97;;
37937;SDS011;23763;48.130;11.602;2023-04-03T05:33:55;2.93;;;2.53;;
37937;SDS011;23763;48.130;11.602;2023-04-03T05:36:21;4.43;;;2.90;;
37937;SDS011;23763;48.130;11.602;2023-04-03T05:38:47;3.37;;;2.87;;
37937;SDS011;23763;48.130;11.602;2023-04-03T05:41:13;2.93;;;2.60;;
37937;SDS011;23763;48.130;11.602;2023-04-03T05:43:39;3.47;;;3.17;;
37937;SDS011;23763;48.130;11.602;2023-04-03T05:46:12;3.10;;;2.77;;
37937;SDS011;23763;48.130;11.602;2023-04-03T05:48:40;5.13;;;3.07;;
37937;SDS011;23763;48.130;11.602;2023-04-03T05:51:06;2.80;;;2.57;;
37937;SDS011;23763;48.130;11.602;2023-04-03T05:53:36;3.77;;;2.73;;
37937;SDS011;23763;48.130;11.602;2023-04-03T05:56:03;2.97;;;2.60;;
37937;SDS011;23763;48.130;11.602;2023-04-03T05:58:28;3.43;;;2.83;;
37937;SDS011;23763;48.130;11.602;2023-04-03T06:00:54;4.23;;;2.70;;
37937;SDS011;23763;48.130;11.602;2023-04-03T06:03:20;5.40;;;3.20;;
37937;SDS011;23763;48.130;11.602;2023-04-03T06:05:46;3.60;;;3.13;;
37937;SDS011;23763;48.130;11.602;2023-04-03T06:08:11;3.40;;;2.70;;
37937;SDS011;23763;48.130;11.602;2023-04-03T06:10:37;3.57;;;3.27;;
37937;SDS011;23763;48.130;11.602;2023-04-03T06:13:03;3.37;;;2.80;;
37937;SDS011;23763;48.130;11.602;2023-04-03T06:15:29;5.00;;;3.73;;
37937;SDS011;23763;48.130;11.602;2023-04-03T06:17:55;3.47;;;2.90;;
37937;SDS011;23763;48.130;11.602;2023-04-03T06:20:21;5.23;;;3.33;;
37937;SDS011;23763;48.130;11.602;2023-04-03T06:22:47;5.10;;;3.17;;
37937;SDS011;23763;48.130;11.602;2023-04-03T06:25:13;4.33;;;3.40;;
37937;SDS011;23763;48.130;11.602;2023-04-03T06:27:39;4.27;;;3.87;;
37937;SDS011;23763;48.130;11.602;2023-04-03T06:30:05;22.43;;;15.93;;
37937;SDS011;23763;48.130;11.602;2023-04-03T06:32:31;4.33;;;3.93;;
37937;SDS011;23763;48.130;11.602;2023-04-03T06:34:57;3.50;;;3.20;;
37937;SDS011;23763;48.130;11.602;2023-04-03T06:37:23;3.70;;;3.40;;
37937;SDS011;23763;48.130;11.602;2023-04-03T06:39:53;3.47;;;3.17;;
37937;SDS011;23763;48.130;11.602;2023-04-03T06:42:19;5.67;;;3.10;;
37937;SDS011;23763;48.130;11.602;2023-04-03T06:44:46;3.67;;;3.33;;
37937;SDS011;23763;48.130;11.602;2023-04-03T06:47:14;3.43;;;3.07;;
37937;SDS011;23763;48.130;11.602;2023-04-03T06:49:41;5.73;;;3.23;;
37937;SDS011;23763;48.130;11.602;2023-04-03T06:52:07;6.67;;;3.77;;
37937;SDS011;23763;48.130;11.602;2023-04-03T06:54:33;6.40;;;3.40;;
37937;SDS011;23763;48.130;11.602;2023-04-03T06:56:59;9.13;;;5.77;;
37937;SDS011;23763;48.130;11.602;2023-04-03T06:59:25;11.40;;;7.90;;
37937;SDS011;23763;48.130;11.602;2023-04-03T07:01:51;4.27;;;3.60;;
37937;SDS011;23763;48.130;11.602;2023-04-03T07:04:17;4.33;;;3.60;;
37937;SDS011;23763;48.130;11.602;2023-04-03T07:06:45;3.87;;;3.23;;
37937;SDS011;23763;48.130;11.602;2023-04-03T07:09:11;4.53;;;3.87;;
37937;SDS011;23763;48.130;11.602;2023-04-03T07:11:38;3.83;;;3.43;;
37937;SDS011;23763;48.130;11.602;2023-04-03T07:14:04;6.23;;;3.50;;
37937;SDS011;23763;48.130;11.602;2023-04-03T07:16:31;3.80;;;3.40;;
37937;SDS011;23763;48.130;11.602;2023-04-03T07:18:56;5.38;;;3.83;;
37937;SDS011;23763;48.130;11.602;2023-04-03T07:21:23;5.33;;;3.43;;
37937;SDS011;23763;48.130;11.602;2023-04-03T07:23:49;4.23;;;3.40;;
37937;SDS011;23763;48.130;11.602;2023-04-03T07:26:15;4.10;;;3.00;;
37937;SDS011;23763;48.130;11.602;2023-04-03T07:28:40;5.87;;;3.30;;
37937;SDS011;23763;48.130;11.602;2023-04-03T07:31:07;5.07;;;3.63;;
37937;SDS011;23763;48.130;11.602;2023-04-03T07:33:37;5.33;;;3.40;;
37937;SDS011;23763;48.130;11.602;2023-04-03T07:36:03;15.63;;;10.15;;
37937;SDS011;23763;48.130;11.602;2023-04-03T07:38:31;4.20;;;3.80;;
37937;SDS011;23763;48.130;11.602;2023-04-03T07:40:58;5.50;;;3.72;;
37937;SDS011;23763;48.130;11.602;2023-04-03T07:43:23;5.07;;;3.53;;
37937;SDS011;23763;48.130;11.602;2023-04-03T07:45:50;4.20;;;3.50;;
37937;SDS011;23763;48.130;11.602;2023-04-03T07:48:17;5.38;;;3.80;;
37937;SDS011;23763;48.130;11.602;2023-04-03T07:50:43;5.82;;;4.30;;
37937;SDS011;23763;48.130;11.602;2023-04-03T07:53:09;4.35;;;3.67;;
37937;SDS011;23763;48.130;11.602;2023-04-03T07:55:35;5.67;;;4.07;;
37937;SDS011;23763;48.130;11.602;2023-04-03T07:58:07;6.65;;;4.20;;
37937;SDS011;23763;48.130;11.602;2023-04-03T08:00:38;5.22;;;4.32;;
37937;SDS011;23763;48.130;11.602;2023-04-03T08:03:04;8.05;;;4.88;;
37937;SDS011;23763;48.130;11.602;2023-04-03T08:05:31;6.93;;;4.33;;
37937;SDS011;23763;48.130;11.602;2023-04-03T08:08:00;6.03;;;4.55;;
37937;SDS011;23763;48.130;11.602;2023-04-03T08:10:26;5.38;;;4.13;;
37937;SDS011;23763;48.130;11.602;2023-04-03T08:12:53;5.25;;;4.40;;
37937;SDS011;23763;48.130;11.602;2023-04-03T08:15:18;9.27;;;4.78;;
37937;SDS011;23763;48.130;11.602;2023-04-03T08:17:45;5.80;;;4.80;;
37937;SDS011;23763;48.130;11.602;2023-04-03T08:20:11;7.88;;;5.43;;
37937;SDS011;23763;48.130;11.602;2023-04-03T08:22:36;5.85;;;5.10;;
37937;SDS011;23763;48.130;11.602;2023-04-03T08:25:02;6.75;;;4.95;;
37937;SDS011;23763;48.130;11.602;2023-04-03T08:27:28;7.68;;;4.68;;
37937;SDS011;23763;48.130;11.602;2023-04-03T08:29:55;9.93;;;6.00;;
37937;SDS011;23763;48.130;11.602;2023-04-03T08:32:21;9.40;;;5.30;;
37937;SDS011;23763;48.130;11.602;2023-04-03T08:34:48;8.13;;;5.75;;
37937;SDS011;23763;48.130;11.602;2023-04-03T08:37:13;10.27;;;4.95;;
37937;SDS011;23763;48.130;11.602;2023-04-03T08:39:41;6.82;;;4.30;;
37937;SDS011;23763;48.130;11.602;2023-04-03T08:42:19;7.38;;;4.80;;
37937;SDS011;23763;48.130;11.602;2023-04-03T08:45:01;5.20;;;4.50;;
37937;SDS011;23763;48.130;11.602;2023-04-03T08:50:06;6.30;;;4.57;;
37937;SDS011;23763;48.130;11.602;2023-04-03T08:55:52;7.18;;;4.70;;
37937;SDS011;23763;48.130;11.602;2023-04-03T08:58:01;4.97;;;4.53;;
37937;SDS011;23763;48.130;11.602;2023-04-03T09:00:44;4.75;;;4.25;;
37937;SDS011;23763;48.130;11.602;2023-04-03T09:03:14;7.18;;;4.82;;
37937;SDS011;23763;48.130;11.602;2023-04-03T09:05:44;7.40;;;5.13;;
37937;SDS011;23763;48.130;11.602;2023-04-03T09:13:39;5.15;;;4.63;;
37937;SDS011;23763;48.130;11.602;2023-04-03T09:24:37;8.63;;;6.50;;
37937;SDS011;23763;48.130;11.602;2023-04-03T09:27:04;6.95;;;4.25;;
37937;SDS011;23763;48.130;11.602;2023-04-03T09:29:33;5.63;;;4.30;;
37937;SDS011;23763;48.130;11.602;2023-04-03T09:32:11;5.95;;;4.45;;
37937;SDS011;23763;48.130;11.602;2023-04-03T09:34:50;5.50;;;4.50;;
37937;SDS011;23763;48.130;11.602;2023-04-03T09:37:40;8.07;;;5.82;;
37937;SDS011;23763;48.130;11.602;2023-04-03T09:40:12;8.15;;;6.03;;
37937;SDS011;23763;48.130;11.602;2023-04-03T09:42:58;5.32;;;4.38;;
37937;SDS011;23763;48.130;11.602;2023-04-03T09:48:05;4.78;;;3.65;;
37937;SDS011;23763;48.130;11.602;2023-04-03T09:50:41;4.40;;;3.42;;
37937;SDS011;23763;48.130;11.602;2023-04-03T09:53:34;3.85;;;3.55;;
37937;SDS011;23763;48.130;11.602;2023-04-03T09:56:25;4.68;;;3.92;;
37937;SDS011;23763;48.130;11.602;2023-04-03T10:01:30;4.90;;;3.15;;
37937;SDS011;23763;48.130;11.602;2023-04-03T10:04:17;3.70;;;3.40;;
37937;SDS011;23763;48.130;11.602;2023-04-03T10:06:53;3.58;;;3.28;;
37937;SDS011;23763;48.130;11.602;2023-04-03T10:09:21;5.85;;;3.45;;
37937;SDS011;23763;48.130;11.602;2023-04-03T10:12:08;4.47;;;3.70;;
37937;SDS011;23763;48.130;11.602;2023-04-03T10:17:18;4.85;;;3.22;;
37937;SDS011;23763;48.130;11.602;2023-04-03T10:20:31;4.53;;;3.78;;
37937;SDS011;23763;48.130;11.602;2023-04-03T10:23:14;6.75;;;4.00;;
37937;SDS011;23763;48.130;11.602;2023-04-03T10:28:31;4.20;;;3.80;;
37937;SDS011;23763;48.130;11.602;2023-04-03T10:36:41;3.95;;;3.40;;
37937;SDS011;23763;48.130;11.602;2023-04-03T10:39:46;3.77;;;3.37;;
37937;SDS011;23763;48.130;11.602;2023-04-03T10:45:48;2.90;;;2.63;;
37937;SDS011;23763;48.130;11.602;2023-04-03T10:57:10;5.27;;;3.17;;
37937;SDS011;23763;48.130;11.602;2023-04-03T10:59:37;3.47;;;3.17;;
37937;SDS011;23763;48.130;11.602;2023-04-03T11:04:50;4.33;;;3.37;;
37937;SDS011;23763;48.130;11.602;2023-04-03T11:07:32;3.77;;;3.47;;
37937;SDS011;23763;48.130;11.602;2023-04-03T11:10:05;6.03;;;3.57;;
37937;SDS011;23763;48.130;11.602;2023-04-03T11:12:56;4.20;;;3.80;;
37937;SDS011;23763;48.130;11.602;2023-04-03T11:15:31;6.63;;;3.23;;
37937;SDS011;23763;48.130;11.602;2023-04-03T11:17:59;6.00;;;3.17;;
37937;SDS011;23763;48.130;11.602;2023-04-03T11:20:43;5.30;;;3.17;;
37937;SDS011;23763;48.130;11.602;2023-04-03T11:23:19;4.00;;;3.20;;
37937;SDS011;23763;48.130;11.602;2023-04-03T11:25:50;3.83;;;3.27;;
37937;SDS011;23763;48.130;11.602;2023-04-03T11:28:19;5.50;;;3.60;;
37937;SDS011;23763;48.130;11.602;2023-04-03T11:30:50;5.80;;;3.78;;
37937;SDS011;23763;48.130;11.602;2023-04-03T11:33:37;5.10;;;3.07;;
37937;SDS011;23763;48.130;11.602;2023-04-03T11:36:12;3.75;;;2.90;;
37937;SDS011;23763;48.130;11.602;2023-04-03T11:38:47;2.78;;;2.50;;
37937;SDS011;23763;48.130;11.602;2023-04-03T11:41:16;3.78;;;2.28;;
37937;SDS011;23763;48.130;11.602;2023-04-03T11:44:05;3.53;;;2.65;;
37937;SDS011;23763;48.130;11.602;2023-04-03T11:46:55;2.60;;;2.40;;
37937;SDS011;23763;48.130;11.602;2023-04-03T11:53:10;4.05;;;2.50;;
37937;SDS011;23763;48.130;11.602;2023-04-03T12:05:54;3.40;;;1.92;;
37937;SDS011;23763;48.130;11.602;2023-04-03T12:16:24;2.83;;;2.30;;
37937;SDS011;23763;48.130;11.602;2023-04-03T12:22:04;2.75;;;2.05;;
37937;SDS011;23763;48.130;11.602;2023-04-03T12:24:26;3.55;;;2.10;;
37937;SDS011;23763;48.130;11.602;2023-04-03T12:29:24;3.25;;;2.17;;
37937;SDS011;23763;48.130;11.602;2023-04-03T12:46:36;3.35;;;2.30;;
37937;SDS011;23763;48.130;11.602;2023-04-03T12:49:41;2.45;;;2.25;;
37937;SDS011;23763;48.130;11.602;2023-04-03T12:52:03;3.63;;;2.00;;
37937;SDS011;23763;48.130;11.602;2023-04-03T12:54:37;3.60;;;2.10;;
37937;SDS011;23763;48.130;11.602;2023-04-03T12:57:10;5.90;;;2.40;;
37937;SDS011;23763;48.130;11.602;2023-04-03T12:59:41;6.55;;;2.70;;
37937;SDS011;23763;48.130;11.602;2023-04-03T13:04:57;3.35;;;2.22;;
37937;SDS011;23763;48.130;11.602;2023-04-03T13:07:29;3.35;;;1.95;;
37937;SDS011;23763;48.130;11.602;2023-04-03T13:12:33;5.18;;;2.53;;
37937;SDS011;23763;48.130;11.602;2023-04-03T13:15:28;2.80;;;2.08;;
37937;SDS011;23763;48.130;11.602;2023-04-03T13:17:56;3.53;;;1.85;;
37937;SDS011;23763;48.130;11.602;2023-04-03T13:20:25;2.08;;;1.77;;
37937;SDS011;23763;48.130;11.602;2023-04-03T13:22:57;2.55;;;1.88;;
37937;SDS011;23763;48.130;11.602;2023-04-03T13:25:27;4.22;;;2.13;;
37937;SDS011;23763;48.130;11.602;2023-04-03T13:27:55;3.97;;;1.70;;
37937;SDS011;23763;48.130;11.602;2023-04-03T13:30:25;3.47;;;1.90;;
37937;SDS011;23763;48.130;11.602;2023-04-03T13:32:51;3.63;;;1.80;;
37937;SDS011;23763;48.130;11.602;2023-04-03T13:41:05;4.13;;;2.20;;
37937;SDS011;23763;48.130;11.602;2023-04-03T13:43:47;2.40;;;1.70;;
37937;SDS011;23763;48.130;11.602;2023-04-03T13:48:47;2.15;;;1.80;;
37937;SDS011;23763;48.130;11.602;2023-04-03T13:51:18;3.90;;;1.77;;
37937;SDS011;23763;48.130;11.602;2023-04-03T13:53:58;2.97;;;1.83;;
37937;SDS011;23763;48.130;11.602;2023-04-03T14:04:25;1.95;;;1.80;;
37937;SDS011;23763;48.130;11.602;2023-04-03T14:06:56;4.05;;;1.75;;
37937;SDS011;23763;48.130;11.602;2023-04-03T14:09:22;6.40;;;2.13;;
37937;SDS011;23763;48.130;11.602;2023-04-03T14:11:52;11.40;;;7.75;;
37937;SDS011;23763;48.130;11.602;2023-04-03T14:14:26;3.80;;;1.70;;
37937;SDS011;23763;48.130;11.602;2023-04-03T14:16:56;3.67;;;1.65;;
37937;SDS011;23763;48.130;11.602;2023-04-03T14:19:26;3.92;;;2.20;;
37937;SDS011;23763;48.130;11.602;2023-04-03T14:21:57;5.82;;;2.30;;
37937;SDS011;23763;48.130;11.602;2023-04-03T14:24:23;3.40;;;1.80;;
37937;SDS011;23763;48.130;11.602;2023-04-03T14:26:50;2.00;;;1.83;;
37937;SDS011;23763;48.130;11.602;2023-04-03T14:29:18;1.77;;;1.38;;
37937;SDS011;23763;48.130;11.602;2023-04-03T14:31:45;1.80;;;1.60;;
37937;SDS011;23763;48.130;11.602;2023-04-03T14:34:12;2.90;;;1.85;;
37937;SDS011;23763;48.130;11.602;2023-04-03T14:36:42;2.97;;;1.60;;
37937;SDS011;23763;48.130;11.602;2023-04-03T14:39:11;1.88;;;1.75;;
37937;SDS011;23763;48.130;11.602;2023-04-03T14:41:42;2.47;;;1.80;;
37937;SDS011;23763;48.130;11.602;2023-04-03T14:44:08;3.28;;;1.52;;
37937;SDS011;23763;48.130;11.602;2023-04-03T14:46:36;4.05;;;2.22;;
37937;SDS011;23763;48.130;11.602;2023-04-03T14:49:20;8.82;;;4.00;;
37937;SDS011;23763;48.130;11.602;2023-04-03T14:51:50;1.92;;;1.70;;
37937;SDS011;23763;48.130;11.602;2023-04-03T14:54:18;7.65;;;4.32;;
37937;SDS011;23763;48.130;11.602;2023-04-03T14:56:50;7.95;;;3.85;;
37937;SDS011;23763;48.130;11.602;2023-04-03T14:59:16;2.90;;;1.98;;
37937;SDS011;23763;48.130;11.602;2023-04-03T15:01:45;10.35;;;5.80;;
37937;SDS011;23763;48.130;11.602;2023-04-03T15:04:14;2.20;;;1.80;;
37937;SDS011;23763;48.130;11.602;2023-04-03T15:06:41;3.03;;;1.90;;
37937;SDS011;23763;48.130;11.602;2023-04-03T15:09:24;1.58;;;1.48;;
37937;SDS011;23763;48.130;11.602;2023-04-03T15:11:51;2.72;;;2.10;;
37937;SDS011;23763;48.130;11.602;2023-04-03T15:14:18;2.47;;;1.70;;
37937;SDS011;23763;48.130;11.602;2023-04-03T15:16:44;2.08;;;1.50;;
37937;SDS011;23763;48.130;11.602;2023-04-03T15:19:10;1.85;;;1.60;;
37937;SDS011;23763;48.130;11.602;2023-04-03T15:21:37;1.90;;;1.52;;
37937;SDS011;23763;48.130;11.602;2023-04-03T15:24:04;2.83;;;1.85;;
37937;SDS011;23763;48.130;11.602;2023-04-03T15:26:30;5.68;;;1.40;;
37937;SDS011;23763;48.130;11.602;2023-04-03T15:28:59;3.42;;;1.80;;
37937;SDS011;23763;48.130;11.602;2023-04-03T15:31:25;2.28;;;1.50;;
37937;SDS011;23763;48.130;11.602;2023-04-03T15:33:52;1.90;;;1.50;;
37937;SDS011;23763;48.130;11.602;2023-04-03T15:36:20;3.85;;;1.52;;
37937;SDS011;23763;48.130;11.602;2023-04-03T15:38:45;1.77;;;1.42;;
37937;SDS011;23763;48.130;11.602;2023-04-03T15:41:11;2.72;;;1.70;;
37937;SDS011;23763;48.130;11.602;2023-04-03T15:43:39;4.53;;;2.33;;
37937;SDS011;23763;48.130;11.602;2023-04-03T15:46:06;3.72;;;2.05;;
37937;SDS011;23763;48.130;11.602;2023-04-03T15:48:31;2.03;;;1.85;;
37937;SDS011;23763;48.130;11.602;2023-04-03T15:50:57;1.42;;;1.33;;
37937;SDS011;23763;48.130;11.602;2023-04-03T15:53:24;2.63;;;1.60;;
37937;SDS011;23763;48.130;11.602;2023-04-03T15:55:50;2.53;;;1.38;;
37937;SDS011;23763;48.130;11.602;2023-04-03T15:58:16;3.13;;;1.40;;
37937;SDS011;23763;48.130;11.602;2023-04-03T16:00:43;2.53;;;1.88;;
37937;SDS011;23763;48.130;11.602;2023-04-03T16:03:10;2.25;;;1.25;;
37937;SDS011;23763;48.130;11.602;2023-04-03T16:05:38;3.03;;;2.08;;
37937;SDS011;23763;48.130;11.602;2023-04-03T16:08:04;2.70;;;1.48;;
37937;SDS011;23763;48.130;11.602;2023-04-03T16:10:32;3.30;;;2.22;;
37937;SDS011;23763;48.130;11.602;2023-04-03T16:12:58;2.75;;;1.80;;
37937;SDS011;23763;48.130;11.602;2023-04-03T16:15:24;1.75;;;1.48;;
37937;SDS011;23763;48.130;11.602;2023-04-03T16:17:51;2.30;;;1.42;;
37937;SDS011;23763;48.130;11.602;2023-04-03T16:20:18;2.35;;;1.58;;
37937;SDS011;23763;48.130;11.602;2023-04-03T16:22:43;2.97;;;1.90;;
37937;SDS011;23763;48.130;11.602;2023-04-03T16:25:09;2.97;;;1.48;;
37937;SDS011;23763;48.130;11.602;2023-04-03T16:27:35;4.63;;;2.00;;
37937;SDS011;23763;48.130;11.602;2023-04-03T16:30:21;2.13;;;1.40;;
37937;SDS011;23763;48.130;11.602;2023-04-03T16:32:46;3.33;;;2.35;;
37937;SDS011;23763;48.130;11.602;2023-04-03T16:35:21;2.85;;;1.92;;
37937;SDS011;23763;48.130;11.602;2023-04-03T16:37:50;2.72;;;1.95;;
37937;SDS011;23763;48.130;11.602;2023-04-03T16:40:18;2.47;;;1.45;;
37937;SDS011;23763;48.130;11.602;2023-04-03T16:42:44;2.85;;;1.73;;
37937;SDS011;23763;48.130;11.602;2023-04-03T16:45:10;2.05;;;1.42;;
37937;SDS011;23763;48.130;11.602;2023-04-03T16:47:36;2.05;;;1.67;;